Time;durP1;ratioP1;P1;durP2;ratioP2;P2;SDS_P1;SDS_P2;PMS_P1;PMS_P2;Temp;Humidity;BMP_temperature;BMP_pressure;BME280_temperature;BME280_humidity;BME280_pressure;Samples;Min_cycle;Max_cycle;Signal;HPM_P1;HPM_P2
2022/04/16 00:01:23;;;;;;;;;;;;;;;5.95;77.81;101171.84;84447;1332;24348;-75
2022/04/16 00:03:31;;;;;;;;;;;;;;;5.92;78.03;101173.95;84452;1333;22584;-75
2022/04/16 00:05:38;;;;;;;;;;;;;;;5.93;78.06;101180.00;84466;1338;22800;-76
2022/04/16 00:08:06;;;;;;;;;;;;;;;5.94;78.16;101179.64;84456;1333;22603;-76
2022/04/16 00:10:12;;;;;;;;;;;;;;;5.94;78.18;101182.58;84465;1338;22600;-76
2022/04/16 00:12:22;;;;;;;;;;;;;;;5.97;77.92;101186.73;84463;1336;22725;-76
2022/04/16 00:14:35;;;;;;;;;;;;;;;6.00;77.91;101185.15;84480;1338;22662;-76
2022/04/16 00:16:44;;;;;;;;;;;;;;;6.00;77.80;101180.82;84502;1334;22603;-75
2022/04/16 00:18:56;;;;;;;;;;;;;;;6.02;77.58;101180.81;84470;1333;22853;-77
2022/04/16 00:21:04;;;;;;;;;;;;;;;6.03;77.60;101190.50;84452;1338;22595;-76
2022/04/16 00:23:14;;;;;;;;;;;;;;;6.05;77.41;101192.73;84465;1333;22706;-76
2022/04/16 00:25:22;;;;;;;;;;;;;;;6.06;77.27;101188.75;84469;1333;23955;-76
2022/04/16 00:27:28;;;;;;;;;;;;;;;6.06;77.28;101193.08;84488;1333;22565;-76
2022/04/16 00:29:36;;;;;;;;;;;;;;;6.03;77.03;101194.65;84484;1338;24178;-75
2022/04/16 00:31:45;;;;;;;;;;;;;;;6.02;77.21;101202.45;84482;1333;24258;-73
2022/04/16 00:33:52;;;;;;;;;;;;;;;5.97;77.10;101204.05;84490;1333;22658;-71
2022/04/16 00:36:00;;;;;;;;;;;;;;;5.92;76.99;101197.84;84457;1333;23978;-73
2022/04/16 00:38:07;;;;;;;;;;;;;;;5.87;76.94;101203.20;84467;1338;22634;-73
2022/04/16 00:40:17;;;;;;;;;;;;;;;5.83;76.64;101203.05;84472;1333;22728;-73
2022/04/16 00:42:27;;;;;;;;;;;;;;;5.78;76.76;101206.36;84487;1333;22594;-73
2022/04/16 00:44:34;;;;;;;;;;;;;;;5.74;77.01;101208.64;84474;1333;25468;-71
2022/04/16 00:46:44;;;;;;;;;;;;;;;5.71;76.53;101209.86;84480;1333;25623;-73
2022/04/16 00:48:52;;;;;;;;;;;;;;;5.67;77.14;101210.41;84460;1333;22608;-73
2022/04/16 00:50:59;;;;;;;;;;;;;;;5.66;76.78;101211.10;84487;1333;22668;-75
2022/04/16 00:53:09;;;;;;;;;;;;;;;5.66;76.81;101215.09;84488;1338;25422;-73
2022/04/16 00:55:16;;;;;;;;;;;;;;;5.65;76.86;101218.54;84472;1330;22570;-73
2022/04/16 00:57:24;;;;;;;;;;;;;;;5.63;76.75;101218.55;84477;1338;22586;-73
2022/04/16 00:59:31;;;;;;;;;;;;;;;5.64;76.81;101221.48;84473;1333;25417;-75
2022/04/16 01:01:39;;;;;;;;;;;;;;;5.64;76.73;101225.29;84480;1333;23022;-74
2022/04/16 01:03:47;;;;;;;;;;;;;;;5.63;76.80;101226.86;84485;1331;22670;-74
2022/04/16 01:05:55;;;;;;;;;;;;;;;5.63;76.72;101226.16;84459;1334;23214;-74
2022/04/16 01:08:06;;;;;;;;;;;;;;;5.62;76.87;101233.62;84479;1333;22584;-73
2022/04/16 01:10:14;;;;;;;;;;;;;;;5.61;76.51;101231.71;84433;1336;22575;-74
2022/04/16 01:12:22;;;;;;;;;;;;;;;5.60;76.72;101231.37;84486;1336;22567;-73
2022/04/16 01:14:29;;;;;;;;;;;;;;;5.59;76.79;101231.38;84459;1336;22659;-73
2022/04/16 01:16:37;;;;;;;;;;;;;;;5.56;76.73;101239.52;84479;1338;22590;-73
2022/04/16 01:18:48;;;;;;;;;;;;;;;5.53;77.03;101244.21;84451;1336;22642;-73
2022/04/16 01:20:56;;;;;;;;;;;;;;;5.50;76.92;101247.48;84503;1334;22881;-74
2022/04/16 01:23:07;;;;;;;;;;;;;;;5.48;77.17;101248.39;84478;1334;22590;-73
2022/04/16 01:25:14;;;;;;;;;;;;;;;5.45;77.23;101244.23;84426;1336;22593;-74
2022/04/16 01:28:01;;;;;;;;;;;;;;;5.45;77.13;101249.59;84473;1333;26160;-75
2022/04/16 01:30:10;;;;;;;;;;;;;;;5.45;77.23;101249.93;84460;1336;22757;-76
2022/04/16 01:32:20;;;;;;;;;;;;;;;5.47;77.27;101248.55;84518;1336;24290;-76
2022/04/16 01:34:27;;;;;;;;;;;;;;;5.48;77.16;101254.79;84458;1333;22598;-75
2022/04/16 01:36:34;;;;;;;;;;;;;;;5.50;77.44;101260.83;84473;1333;23873;-75
2022/04/16 01:38:44;;;;;;;;;;;;;;;5.49;77.31;101262.39;84469;1333;22567;-73
2022/04/16 01:40:54;;;;;;;;;;;;;;;5.49;77.42;101264.12;84471;1336;22570;-77
2022/04/16 01:43:04;;;;;;;;;;;;;;;5.51;77.67;101265.84;84452;1338;22582;-75
2022/04/16 01:45:17;;;;;;;;;;;;;;;5.51;77.29;101269.80;84475;1333;25403;-75
2022/04/16 01:47:27;;;;;;;;;;;;;;;5.53;77.29;101272.95;84464;1337;22704;-76
2022/04/16 01:49:37;;;;;;;;;;;;;;;5.51;77.21;101268.77;84463;1334;22927;-76
2022/04/16 01:51:48;;;;;;;;;;;;;;;5.47;77.24;101273.13;84479;1333;25540;-72
2022/04/16 01:53:58;;;;;;;;;;;;;;;5.44;76.88;101273.30;84454;1334;22617;-73
2022/04/16 01:56:08;;;;;;;;;;;;;;;5.42;77.14;101277.64;84503;1335;22829;-74
2022/04/16 01:58:15;;;;;;;;;;;;;;;5.38;76.84;101280.94;84467;1334;22793;-75
2022/04/16 02:00:25;;;;;;;;;;;;;;;5.33;76.60;101281.29;84466;1330;22576;-75
2022/04/16 02:02:32;;;;;;;;;;;;;;;5.30;76.71;101283.36;84474;1335;22579;-73
2022/04/16 02:04:42;;;;;;;;;;;;;;;5.27;76.61;101279.91;84485;1334;22602;-73
2022/04/16 02:06:50;;;;;;;;;;;;;;;5.24;76.55;101285.29;84469;1334;24327;-75
2022/04/16 02:09:01;;;;;;;;;;;;;;;5.21;76.56;101286.85;84479;1333;22818;-75
2022/04/16 02:11:08;;;;;;;;;;;;;;;5.20;76.59;101292.73;84485;1329;25263;-75
2022/04/16 02:13:15;;;;;;;;;;;;;;;5.18;76.20;101288.92;84467;1334;22624;-75
2022/04/16 02:15:23;;;;;;;;;;;;;;;5.16;76.39;101288.23;84479;1336;22664;-75
2022/04/16 02:17:33;;;;;;;;;;;;;;;5.14;76.49;101291.70;84072;1333;1003892;-72
2022/04/16 02:19:41;;;;;;;;;;;;;;;5.13;76.28;101294.13;84443;1335;22826;-71
2022/04/16 02:21:49;;;;;;;;;;;;;;;5.11;76.35;101297.40;84505;1333;22571;-73
2022/04/16 02:23:57;;;;;;;;;;;;;;;5.10;76.50;101303.63;84454;1335;22581;-73
2022/04/16 02:26:09;;;;;;;;;;;;;;;5.10;76.42;101298.44;84467;1334;22581;-72
2022/04/16 02:28:16;;;;;;;;;;;;;;;5.09;76.39;101300.88;84467;1331;24306;-72
2022/04/16 02:30:24;;;;;;;;;;;;;;;5.10;76.03;101303.80;84461;1335;22912;-73
2022/04/16 02:32:35;;;;;;;;;;;;;;;5.12;76.28;101307.79;84496;1335;22686;-72
2022/04/16 02:34:42;;;;;;;;;;;;;;;5.13;75.99;101309.00;84459;1333;25506;-72
2022/04/16 02:36:49;;;;;;;;;;;;;;;5.14;75.46;101313.49;84512;1333;22955;-75
2022/04/16 02:38:57;;;;;;;;;;;;;;;5.15;75.46;101313.82;84461;1336;22597;-75
2022/04/16 02:41:04;;;;;;;;;;;;;;;5.17;75.11;101316.61;84465;1336;24214;-74
2022/04/16 02:43:11;;;;;;;;;;;;;;;5.15;74.97;101320.91;84467;1333;22574;-75
2022/04/16 02:47:43;;;;;;;;;;;;;;;5.13;74.97;101329.23;84499;1333;22608;-72
2022/04/16 02:49:50;;;;;;;;;;;;;;;5.11;74.38;101331.48;84459;1333;25904;-73
2022/04/16 02:51:57;;;;;;;;;;;;;;;5.08;74.55;101335.11;84476;1334;22579;-75
2022/04/16 02:54:05;;;;;;;;;;;;;;;5.07;74.04;101338.55;84509;1335;24242;-75
2022/04/16 02:56:12;;;;;;;;;;;;;;;5.05;74.15;101340.46;84488;1334;22584;-76
2022/04/16 02:58:19;;;;;;;;;;;;;;;5.01;73.60;101342.88;84458;1336;23948;-76
2022/04/16 03:00:27;;;;;;;;;;;;;;;4.97;73.46;101341.50;84490;1333;22576;-75
2022/04/16 03:02:34;;;;;;;;;;;;;;;4.92;73.45;101341.67;84479;1333;22854;-72
2022/04/16 03:04:41;;;;;;;;;;;;;;;4.90;73.57;101345.14;84456;1333;25516;-73
2022/04/16 03:06:48;;;;;;;;;;;;;;;4.88;73.48;101349.97;84476;1333;26049;-75
2022/04/16 03:08:56;;;;;;;;;;;;;;;4.85;73.40;101353.08;84458;1333;22865;-76
2022/04/16 03:11:04;;;;;;;;;;;;;;;4.81;73.13;101353.41;84484;1330;22576;-73
2022/04/16 03:13:14;;;;;;;;;;;;;;;4.79;72.70;101351.86;84469;1333;24237;-74
2022/04/16 03:17:49;;;;;;;;;;;;;;;4.79;72.66;101361.38;84464;1338;22732;-76
2022/04/16 03:19:56;;;;;;;;;;;;;;;4.80;72.50;101367.42;84465;1331;22577;-76
2022/04/16 03:22:07;;;;;;;;;;;;;;;4.81;72.56;101371.23;84442;1338;23869;-72
2022/04/16 03:24:15;;;;;;;;;;;;;;;4.84;72.40;101371.93;84475;1333;25566;-72
2022/04/16 03:26:22;;;;;;;;;;;;;;;4.84;72.03;101373.66;84452;1338;22588;-76
2022/04/16 03:28:29;;;;;;;;;;;;;;;4.83;71.59;101373.98;84298;1333;234509;-74
2022/04/16 03:30:36;;;;;;;;;;;;;;;4.82;71.76;101381.42;84463;1330;22568;-74
2022/04/16 03:32:48;;;;;;;;;;;;;;;4.82;71.69;101383.14;84460;1333;24363;-72
2022/04/16 03:34:58;;;;;;;;;;;;;;;4.80;71.59;101381.27;84471;1335;22566;-72
2022/04/16 03:37:08;;;;;;;;;;;;;;;4.79;71.44;101383.51;84503;1337;22584;-77
2022/04/16 03:39:20;;;;;;;;;;;;;;;4.77;71.34;101385.21;84462;1333;22966;-76
2022/04/16 03:41:28;;;;;;;;;;;;;;;4.74;71.03;101389.71;83762;1333;1003108;-75
2022/04/16 03:43:38;;;;;;;;;;;;;;;4.71;71.10;101394.88;84447;1326;22606;-73
2022/04/16 03:45:45;;;;;;;;;;;;;;;4.66;71.19;101395.91;84488;1331;22810;-76
2022/04/16 03:47:52;;;;;;;;;;;;;;;4.62;70.90;101398.66;84462;1333;22635;-74
2022/04/16 03:50:03;;;;;;;;;;;;;;;4.60;71.01;101402.98;84470;1330;22806;-76
2022/04/16 03:52:10;;;;;;;;;;;;;;;4.57;70.80;101404.52;84467;1333;24011;-74
2022/04/16 04:01:38;;;;;;;;;;;;;;;4.58;69.83;101424.93;84494;1333;22573;-74
2022/04/16 04:03:47;;;;;;;;;;;;;;;4.61;69.69;101430.29;84440;1336;23927;-75
2022/04/16 04:05:58;;;;;;;;;;;;;;;4.61;69.74;101433.22;84496;1333;22608;-73
2022/04/16 04:08:06;;;;;;;;;;;;;;;4.61;69.66;101432.02;84479;1333;22809;-76
2022/04/16 04:10:14;;;;;;;;;;;;;;;4.60;69.76;101437.90;84468;1333;22566;-75
2022/04/16 04:12:25;;;;;;;;;;;;;;;4.56;69.18;101442.70;84478;1333;23827;-75
2022/04/16 04:14:32;;;;;;;;;;;;;;;4.51;69.36;101442.52;84469;1333;22575;-75
2022/04/16 04:16:39;;;;;;;;;;;;;;;4.49;69.02;101448.21;84473;1337;24159;-75
2022/04/16 04:18:46;;;;;;;;;;;;;;;4.42;68.72;101452.15;84469;1333;22597;-74
2022/04/16 04:20:56;;;;;;;;;;;;;;;4.38;68.93;101456.98;84449;1334;22633;-75
2022/04/16 04:23:07;;;;;;;;;;;;;;;4.34;68.64;101462.48;84461;1333;22894;-72
2022/04/16 04:25:14;;;;;;;;;;;;;;;4.29;68.41;101465.39;84504;1333;25324;-73
2022/04/16 04:27:21;;;;;;;;;;;;;;;4.23;68.72;101464.51;84499;1336;25347;-75
2022/04/16 04:29:28;;;;;;;;;;;;;;;4.17;68.60;101471.71;84476;1333;22681;-75
2022/04/16 04:31:38;;;;;;;;;;;;;;;4.06;68.45;101473.20;84480;1332;22609;-73
2022/04/16 04:33:45;;;;;;;;;;;;;;;3.97;68.74;101474.19;84464;1333;22930;-72
2022/04/16 04:35:55;;;;;;;;;;;;;;;3.99;69.09;101478.17;84449;1335;22587;-74
2022/04/16 04:38:03;;;;;;;;;;;;;;;4.00;69.39;101478.70;84491;1333;23204;-76
2022/04/16 04:40:11;;;;;;;;;;;;;;;4.87;71.27;101479.11;84458;1333;22567;-75
2022/04/16 04:42:26;;;;;;;;;;;;;;;6.11;70.21;101481.98;84482;1333;23029;-73
2022/04/16 04:44:33;;;;;;;;;;;;;;;7.33;67.03;101480.42;84482;1333;26114;-72
2022/04/16 04:46:40;;;;;;;;;;;;;;;8.31;64.25;101482.87;84468;1333;22638;-72
2022/04/16 04:48:47;;;;;;;;;;;;;;;9.04;59.78;101491.91;84482;1333;22570;-72
2022/04/16 04:50:55;;;;;;;;;;;;;;;9.05;59.14;101490.34;84484;1333;22569;-73
2022/04/16 04:53:05;;;;;;;;;;;;;;;8.83;57.80;101498.46;84423;1336;22595;-72
2022/04/16 04:55:15;;;;;;;;;;;;;;;8.42;57.76;101497.02;84482;1333;22589;-72
2022/04/16 04:57:26;;;;;;;;;;;;;;;8.37;57.01;101501.94;84475;1335;22564;-75
2022/04/16 04:59:33;;;;;;;;;;;;;;;9.01;58.23;101502.05;84464;1333;23941;-75
2022/04/16 05:01:40;;;;;;;;;;;;;;;9.84;55.93;101501.83;84454;1333;22563;-75
2022/04/16 05:03:47;;;;;;;;;;;;;;;10.21;54.77;101500.84;84475;1336;26035;-75
2022/04/16 05:05:57;;;;;;;;;;;;;;;10.43;54.11;101501.31;84478;1333;22614;-75
2022/04/16 05:08:08;;;;;;;;;;;;;;;10.76;53.49;101505.02;84466;1333;22584;-73
2022/04/16 05:10:16;;;;;;;;;;;;;;;11.13;52.25;101508.60;84468;1333;22572;-73
2022/04/16 05:12:26;;;;;;;;;;;;;;;11.40;51.96;101511.29;84481;1333;24029;-72
2022/04/16 05:14:34;;;;;;;;;;;;;;;11.65;51.04;101512.64;84468;1335;23914;-76
2022/04/16 05:16:43;;;;;;;;;;;;;;;11.79;49.70;101511.63;84509;1333;22582;-71
2022/04/16 05:18:51;;;;;;;;;;;;;;;11.96;48.56;101517.48;84454;1333;22580;-73
2022/04/16 05:20:58;;;;;;;;;;;;;;;12.07;48.50;101520.36;84493;1333;24298;-73
2022/04/16 05:23:06;;;;;;;;;;;;;;;12.31;48.67;101523.58;84482;1333;25456;-72
2022/04/16 05:25:16;;;;;;;;;;;;;;;12.14;46.02;101524.04;84452;1333;22677;-72
2022/04/16 05:27:24;;;;;;;;;;;;;;;11.79;46.86;101531.00;84483;1333;22590;-73
2022/04/16 05:29:48;;;;;;;;;;;;;;;12.09;47.16;101532.36;84465;1333;25432;-76
2022/04/16 05:31:56;;;;;;;;;;;;;;;12.80;47.03;101531.50;84487;1333;22597;-71
2022/04/16 05:34:22;;;;;;;;;;;;;;;13.52;44.49;101538.81;84475;1335;22564;-71
2022/04/16 05:36:30;;;;;;;;;;;;;;;13.85;43.85;101533.01;84475;1333;25504;-75
2022/04/16 05:38:38;;;;;;;;;;;;;;;14.05;42.73;101539.02;84496;1333;22739;-75
2022/04/16 05:40:45;;;;;;;;;;;;;;;13.73;42.06;101539.35;84462;1333;23990;-73
2022/04/16 05:42:53;;;;;;;;;;;;;;;13.87;41.80;101541.17;84494;1335;23030;-75
2022/04/16 05:45:05;;;;;;;;;;;;;;;14.12;41.99;101549.48;84426;1334;22595;-73
2022/04/16 05:47:12;;;;;;;;;;;;;;;14.78;40.49;101545.77;84474;1335;22595;-75
2022/04/16 05:49:20;;;;;;;;;;;;;;;14.80;39.54;101545.86;84505;1333;22611;-75
2022/04/16 05:51:32;;;;;;;;;;;;;;;14.98;40.08;101545.38;84427;1336;23039;-75
2022/04/16 05:53:45;;;;;;;;;;;;;;;15.44;38.92;101548.17;84433;1335;24253;-75
2022/04/16 05:55:57;;;;;;;;;;;;;;;15.06;37.89;101549.64;84451;1335;25303;-74
2022/04/16 05:58:09;;;;;;;;;;;;;;;14.92;38.77;101557.02;84509;1333;22576;-72
2022/04/16 06:00:19;;;;;;;;;;;;;;;15.03;38.17;101553.08;84490;1333;25267;-71
2022/04/16 06:02:27;;;;;;;;;;;;;;;14.40;38.03;101556.78;84462;1331;22661;-72
2022/04/16 06:04:35;;;;;;;;;;;;;;;14.11;39.24;101559.86;84447;1334;22993;-71
2022/04/16 06:06:42;;;;;;;;;;;;;;;14.45;39.34;101556.77;84495;1336;22564;-70
2022/04/16 06:08:51;;;;;;;;;;;;;;;14.99;38.99;101556.05;84494;1336;22583;-75
2022/04/16 06:10:59;;;;;;;;;;;;;;;14.74;37.47;101559.30;84446;1331;22560;-72
2022/04/16 06:13:07;;;;;;;;;;;;;;;14.48;38.30;101558.07;84482;1335;25545;-72
2022/04/16 06:15:15;;;;;;;;;;;;;;;14.69;38.01;101561.90;84491;1335;23958;-71
2022/04/16 06:17:23;;;;;;;;;;;;;;;15.14;37.99;101559.88;84492;1335;22618;-71
2022/04/16 06:19:31;;;;;;;;;;;;;;;15.40;37.02;101562.59;84483;1331;24250;-70
2022/04/16 06:21:40;;;;;;;;;;;;;;;15.80;36.84;101561.70;84449;1336;22614;-74
2022/04/16 06:23:47;;;;;;;;;;;;;;;15.54;36.17;101566.09;84478;1336;24792;-74
2022/04/16 06:25:55;;;;;;;;;;;;;;;15.25;36.96;101566.67;84483;1333;22711;-74
2022/04/16 06:28:07;;;;;;;;;;;;;;;15.80;37.12;101567.16;84458;1333;23965;-72
2022/04/16 06:30:15;;;;;;;;;;;;;;;16.19;35.35;101564.66;84485;1336;25282;-73
2022/04/16 06:32:24;;;;;;;;;;;;;;;16.14;35.30;101565.77;84439;1334;22612;-72
2022/04/16 06:34:32;;;;;;;;;;;;;;;16.09;35.20;101569.68;84459;1335;24246;-73
2022/04/16 06:36:41;;;;;;;;;;;;;;;16.00;35.06;101573.73;84477;1333;22566;-75
2022/04/16 06:38:50;;;;;;;;;;;;;;;15.54;34.43;101578.76;84468;1334;22717;-73
2022/04/16 06:41:00;;;;;;;;;;;;;;;15.48;34.49;101578.46;84492;1333;22701;-72
2022/04/16 06:43:08;;;;;;;;;;;;;;;15.53;34.15;101584.24;84461;1336;22579;-72
2022/04/16 06:45:17;;;;;;;;;;;;;;;15.11;34.04;101589.36;84460;1333;23957;-72
2022/04/16 06:47:25;;;;;;;;;;;;;;;14.71;34.79;101581.00;84490;1333;22573;-75
2022/04/16 06:49:33;;;;;;;;;;;;;;;14.42;35.42;101591.46;84441;1330;22720;-75
2022/04/16 06:51:40;;;;;;;;;;;;;;;14.17;35.35;101590.04;84471;1337;22655;-74
2022/04/16 06:53:47;;;;;;;;;;;;;;;14.42;36.36;101588.66;84437;1334;22694;-74
2022/04/16 06:56:00;;;;;;;;;;;;;;;14.87;35.93;101589.17;84459;1335;22715;-76
2022/04/16 06:58:09;;;;;;;;;;;;;;;15.25;34.91;101583.57;84514;1333;24292;-73
2022/04/16 07:00:18;;;;;;;;;;;;;;;15.06;34.81;101588.85;84510;1336;24212;-74
2022/04/16 07:02:27;;;;;;;;;;;;;;;14.60;34.65;101594.55;84476;1335;22633;-76
2022/04/16 07:04:34;;;;;;;;;;;;;;;14.11;35.63;101593.56;84466;1338;24396;-74
2022/04/16 07:06:42;;;;;;;;;;;;;;;13.80;35.65;101597.72;84513;1334;22669;-70
2022/04/16 07:08:50;;;;;;;;;;;;;;;13.34;35.89;101598.61;84414;1336;23904;-72
2022/04/16 07:10:58;;;;;;;;;;;;;;;12.75;36.75;101605.00;84499;1336;23453;-73
2022/04/16 07:13:06;;;;;;;;;;;;;;;12.68;37.70;101611.50;84483;1334;22573;-73
2022/04/16 07:15:13;;;;;;;;;;;;;;;13.29;38.04;101611.53;84457;1333;22710;-71
2022/04/16 07:17:23;;;;;;;;;;;;;;;13.77;36.70;101621.15;84499;1333;26063;-74
2022/04/16 07:19:30;;;;;;;;;;;;;;;14.05;36.43;101622.54;84445;1333;22581;-72
2022/04/16 07:21:41;;;;;;;;;;;;;;;14.27;35.44;101625.84;84458;1338;23889;-76
2022/04/16 07:23:51;;;;;;;;;;;;;;;14.30;35.03;101631.38;84485;1336;22582;-75
2022/04/16 07:26:01;;;;;;;;;;;;;;;14.19;34.38;101639.10;84475;1336;22632;-73
2022/04/16 07:28:12;;;;;;;;;;;;;;;13.57;34.15;101640.34;84478;1334;22842;-75
2022/04/16 07:30:20;;;;;;;;;;;;;;;13.05;35.14;101641.67;84481;1336;22599;-76
2022/04/16 07:32:31;;;;;;;;;;;;;;;13.09;35.93;101639.98;84476;1333;24156;-73
2022/04/16 07:34:38;;;;;;;;;;;;;;;13.81;36.16;101639.60;84463;1336;22719;-73
2022/04/16 07:36:45;;;;;;;;;;;;;;;14.82;33.98;101638.40;84518;1337;22574;-71
2022/04/16 07:38:53;;;;;;;;;;;;;;;15.71;34.45;101628.36;84457;1334;22636;-72
2022/04/16 07:41:03;;;;;;;;;;;;;;;16.61;32.49;101627.71;84478;1334;24265;-76
2022/04/16 07:43:11;;;;;;;;;;;;;;;17.32;31.17;101628.09;84473;1333;25297;-76
2022/04/16 07:45:18;;;;;;;;;;;;;;;17.87;30.86;101632.02;84463;1336;22751;-74
2022/04/16 07:47:25;;;;;;;;;;;;;;;18.27;29.34;101633.60;84448;1334;22721;-73
2022/04/16 07:49:32;;;;;;;;;;;;;;;18.65;29.69;101628.67;84473;1336;22580;-73
2022/04/16 07:51:40;;;;;;;;;;;;;;;19.28;28.36;101623.21;84454;1333;24089;-75
2022/04/16 07:53:51;;;;;;;;;;;;;;;20.08;28.40;101624.39;84469;1333;22572;-72
2022/04/16 07:56:02;;;;;;;;;;;;;;;20.68;26.95;101631.34;84444;1336;26495;-73
2022/04/16 07:58:12;;;;;;;;;;;;;;;19.83;26.20;101639.27;84444;1335;22681;-72
2022/04/16 08:00:19;;;;;;;;;;;;;;;18.50;26.82;101651.34;84480;1333;22612;-71
2022/04/16 08:02:29;;;;;;;;;;;;;;;17.23;27.97;101656.34;84460;1333;25403;-73
2022/04/16 08:04:36;;;;;;;;;;;;;;;16.48;29.01;101662.27;84454;1338;22584;-73
2022/04/16 08:06:43;;;;;;;;;;;;;;;16.19;29.67;101663.79;84472;1333;25464;-72
2022/04/16 08:08:54;;;;;;;;;;;;;;;16.64;30.11;101653.61;84454;1333;22567;-71
2022/04/16 08:11:01;;;;;;;;;;;;;;;17.08;29.20;101648.38;84451;1335;22589;-72
2022/04/16 08:13:22;;;;;;;;;;;;;;;16.66;29.22;101656.02;84437;1336;24271;-70
2022/04/16 08:15:32;;;;;;;;;;;;;;;16.54;29.20;101652.47;84468;1331;24277;-74
2022/04/16 08:17:43;;;;;;;;;;;;;;;16.41;29.81;101652.48;84467;1333;22808;-74
2022/04/16 08:19:53;;;;;;;;;;;;;;;17.00;30.11;101647.69;84479;1334;22574;-73
2022/04/16 08:22:07;;;;;;;;;;;;;;;17.13;29.04;101652.75;84445;1333;22929;-74
2022/04/16 08:24:38;;;;;;;;;;;;;;;17.53;28.92;101652.33;84476;1333;22664;-74
2022/04/16 08:26:46;;;;;;;;;;;;;;;18.31;28.48;101652.84;84488;1333;22582;-72
2022/04/16 08:28:54;;;;;;;;;;;;;;;19.08;27.46;101650.14;84462;1333;25237;-73
2022/04/16 08:31:06;;;;;;;;;;;;;;;19.58;26.36;101653.77;84495;1334;22595;-73
2022/04/16 08:33:20;;;;;;;;;;;;;;;19.81;25.89;101650.54;84454;1336;22579;-71
2022/04/16 08:35:29;;;;;;;;;;;;;;;20.10;26.03;101649.83;85671;1334;22583;-73
2022/04/16 08:37:39;;;;;;;;;;;;;;;20.46;25.20;101653.76;84357;1336;23683;-73
2022/04/16 08:39:50;;;;;;;;;;;;;;;20.75;24.92;101651.89;85590;1330;22726;-74
2022/04/16 08:42:03;;;;;;;;;;;;;;;21.00;24.19;101654.77;84383;1334;25120;-75
2022/04/16 08:44:19;;;;;;;;;;;;;;;21.07;23.98;101660.20;84396;1333;22560;-75
2022/04/16 08:46:33;;;;;;;;;;;;;;;21.48;24.25;101654.98;84420;1335;25631;-76
2022/04/16 08:48:44;;;;;;;;;;;;;;;21.78;23.89;101660.17;84509;1333;24388;-76
2022/04/16 08:50:52;;;;;;;;;;;;;;;22.03;23.36;101661.56;84434;1333;22771;-75
2022/04/16 08:53:02;;;;;;;;;;;;;;;22.40;23.11;101657.67;84450;1336;22572;-77
2022/04/16 08:55:14;;;;;;;;;;;;;;;22.69;22.45;101662.83;84473;1333;22566;-75
2022/04/16 08:57:26;;;;;;;;;;;;;;;22.96;22.38;101656.73;84466;1333;22606;-72
2022/04/16 08:59:40;;;;;;;;;;;;;;;23.38;21.98;101653.40;84478;1333;22642;-76
2022/04/16 09:01:47;;;;;;;;;;;;;;;23.56;20.59;101654.08;84501;1333;22706;-75
2022/04/16 09:03:59;;;;;;;;;;;;;;;23.32;21.27;101653.13;84463;1333;22563;-76
2022/04/16 09:06:18;;;;;;;;;;;;;;;23.47;21.10;101657.95;84452;1335;22622;-76
2022/04/16 09:08:32;;;;;;;;;;;;;;;23.31;20.87;101647.30;84445;1333;22595;-78
2022/04/16 09:10:44;;;;;;;;;;;;;;;23.12;20.97;101652.23;84585;1313;22601;-78
2022/04/16 09:12:56;;;;;;;;;;;;;;;22.60;21.26;101653.85;84514;1333;22594;-79
2022/04/16 09:15:08;;;;;;;;;;;;;;;21.98;22.10;101657.11;84512;1336;22801;-73
2022/04/16 09:17:18;;;;;;;;;;;;;;;21.20;22.58;101656.90;84509;1330;22998;-75
2022/04/16 09:19:30;;;;;;;;;;;;;;;20.54;22.83;101663.88;84532;1333;22579;-74
2022/04/16 09:21:43;;;;;;;;;;;;;;;19.87;23.27;101667.23;84516;1333;22595;-73
2022/04/16 09:24:03;;;;;;;;;;;;;;;19.86;24.15;101669.75;84514;1333;22757;-74
2022/04/16 09:26:25;;;;;;;;;;;;;;;20.15;23.91;101662.07;84530;1332;24277;-74
2022/04/16 09:28:45;;;;;;;;;;;;;;;19.94;24.20;101666.52;84453;1333;22598;-75
2022/04/16 09:30:57;;;;;;;;;;;;;;;19.07;23.74;101679.18;84520;1336;23943;-72
2022/04/16 09:33:13;;;;;;;;;;;;;;;18.03;24.59;101684.39;84498;1333;24254;-74
2022/04/16 09:35:38;;;;;;;;;;;;;;;17.06;25.23;101680.55;84557;1332;22652;-73
2022/04/16 09:37:57;;;;;;;;;;;;;;;16.15;26.76;101683.33;84529;1333;24216;-72
2022/04/16 09:40:25;;;;;;;;;;;;;;;15.54;27.77;101683.55;84543;1334;22575;-75
2022/04/16 09:42:33;;;;;;;;;;;;;;;14.83;28.02;101694.39;84516;1334;22585;-74
2022/04/16 09:44:44;;;;;;;;;;;;;;;14.36;28.84;101696.45;84529;1332;22727;-76
2022/04/16 09:46:56;;;;;;;;;;;;;;;13.98;29.02;101695.91;84514;1333;22592;-72
2022/04/16 09:49:05;;;;;;;;;;;;;;;13.58;29.19;101696.07;84521;1332;22641;-72
2022/04/16 09:51:14;;;;;;;;;;;;;;;13.21;29.44;101698.87;84518;1332;22582;-76
2022/04/16 09:53:25;;;;;;;;;;;;;;;13.04;30.03;101700.55;84489;1331;22844;-74
2022/04/16 09:55:32;;;;;;;;;;;;;;;13.02;30.48;101697.45;84504;1333;22641;-72
2022/04/16 09:57:40;;;;;;;;;;;;;;;13.21;30.94;101695.01;84522;1332;23917;-72
2022/04/16 09:59:52;;;;;;;;;;;;;;;13.53;31.12;101696.41;84523;1336;22901;-73
2022/04/16 10:02:06;;;;;;;;;;;;;;;13.79;30.57;101687.39;84533;1332;24360;-71
2022/04/16 10:04:22;;;;;;;;;;;;;;;14.05;30.15;101688.34;84497;1328;22601;-72
2022/04/16 10:06:34;;;;;;;;;;;;;;;14.12;29.86;101687.77;84525;1333;22556;-70
2022/04/16 10:08:44;;;;;;;;;;;;;;;13.95;30.65;101688.83;84525;1332;24085;-70
2022/04/16 10:10:57;;;;;;;;;;;;;;;13.66;30.99;101696.05;84520;1333;23262;-75
2022/04/16 10:13:10;;;;;;;;;;;;;;;13.32;31.33;101698.77;84497;1336;22671;-75
2022/04/16 10:15:22;;;;;;;;;;;;;;;13.06;31.45;101695.43;84516;1334;24067;-72
2022/04/16 10:17:32;;;;;;;;;;;;;;;12.82;32.38;101692.20;84504;1332;24434;-70
2022/04/16 10:19:46;;;;;;;;;;;;;;;12.71;32.70;101685.84;84530;1333;22587;-73
2022/04/16 10:21:57;;;;;;;;;;;;;;;12.58;32.99;101696.14;84513;1333;24255;-75
2022/04/16 10:24:05;;;;;;;;;;;;;;;12.46;33.15;101694.33;84530;1332;22572;-75
2022/04/16 10:26:16;;;;;;;;;;;;;;;12.34;33.11;101698.83;84532;1333;22628;-72
2022/04/16 10:28:24;;;;;;;;;;;;;;;12.23;32.91;101698.23;84454;1333;22601;-71
2022/04/16 10:30:39;;;;;;;;;;;;;;;12.23;33.17;101695.94;84524;1332;25294;-73
2022/04/16 10:32:47;;;;;;;;;;;;;;;12.41;32.93;101694.99;84442;1338;22943;-75
2022/04/16 10:35:06;;;;;;;;;;;;;;;12.60;32.45;101698.02;84544;1330;22929;-73
2022/04/16 10:37:24;;;;;;;;;;;;;;;12.92;32.15;101688.08;84521;1332;24830;-70
2022/04/16 10:39:34;;;;;;;;;;;;;;;13.28;31.84;101685.90;84523;1333;26496;-73
2022/04/16 10:41:55;;;;;;;;;;;;;;;13.51;31.36;101691.20;84514;1333;22669;-75
2022/04/16 10:44:04;;;;;;;;;;;;;;;13.67;31.15;101692.48;84514;1333;22568;-82
2022/04/16 10:46:17;;;;;;;;;;;;;;;13.72;29.92;101694.61;84531;1333;22596;-71
2022/04/16 10:48:30;;;;;;;;;;;;;;;13.55;29.96;101687.03;84532;1332;22612;-72
2022/04/16 10:50:40;;;;;;;;;;;;;;;13.46;30.42;101685.56;84396;1334;22582;-72
2022/04/16 10:52:58;;;;;;;;;;;;;;;13.54;31.01;101687.77;84512;1332;25297;-71
2022/04/16 10:55:12;;;;;;;;;;;;;;;13.45;30.36;101687.34;84483;1333;22730;-71
2022/04/16 10:57:26;;;;;;;;;;;;;;;13.30;30.25;101682.84;84522;1332;22733;-70
2022/04/16 10:59:40;;;;;;;;;;;;;;;13.37;30.84;101687.55;84459;1335;22586;-73
2022/04/16 11:01:55;;;;;;;;;;;;;;;13.48;29.70;101693.40;84512;1330;24360;-74
2022/04/16 11:04:14;;;;;;;;;;;;;;;13.30;29.55;101686.73;84509;1333;22578;-73
2022/04/16 11:06:37;;;;;;;;;;;;;;;13.00;30.26;101689.09;84520;1332;22567;-75
2022/04/16 11:08:48;;;;;;;;;;;;;;;12.84;30.53;101692.52;84506;1333;24242;-73
2022/04/16 11:11:02;;;;;;;;;;;;;;;12.70;31.19;101691.11;84530;1333;22618;-74
2022/04/16 11:13:13;;;;;;;;;;;;;;;12.54;31.00;101701.83;84501;1333;23965;-75
2022/04/16 11:15:24;;;;;;;;;;;;;;;12.34;30.80;101700.23;84504;1332;22572;-75
2022/04/16 11:17:33;;;;;;;;;;;;;;;12.17;31.40;101707.80;84523;1333;25275;-75
2022/04/16 11:19:42;;;;;;;;;;;;;;;12.02;31.93;101709.39;84512;1333;22685;-72
2022/04/16 11:21:49;;;;;;;;;;;;;;;12.04;32.66;101705.30;84517;1334;22594;-76
2022/04/16 11:24:04;;;;;;;;;;;;;;;12.22;33.22;101698.23;84465;1332;22586;-73